createdAt,value
2023-05-06T00:05:04.418Z,50.8
2023-05-06T00:10:22.689Z,50.8
2023-05-06T00:15:41.009Z,51.2
2023-05-06T00:20:59.509Z,51
2023-05-06T00:26:18.194Z,50.4
2023-05-06T00:31:37.083Z,51.1
2023-05-06T00:36:55.452Z,51.2
2023-05-06T00:42:13.901Z,51
2023-05-06T00:47:32.203Z,50.2
2023-05-06T00:52:50.456Z,50.5
2023-05-06T00:58:08.713Z,50.1
2023-05-06T01:03:27.565Z,50.2
2023-05-06T01:08:46.181Z,50.6
2023-05-06T01:14:04.569Z,50.8
2023-05-06T01:19:23.004Z,50.4
2023-05-06T01:24:41.155Z,50.2
2023-05-06T01:29:59.127Z,50.2
2023-05-06T01:35:17.453Z,50.5
2023-05-06T01:40:35.730Z,51
2023-05-06T01:45:54.360Z,50.4
2023-05-06T01:51:12.385Z,50.5
2023-05-06T01:56:30.412Z,49.8
2023-05-06T02:01:48.902Z,49.7
2023-05-06T02:07:07.299Z,49.5
2023-05-06T02:12:25.803Z,49.7
2023-05-06T02:17:44.238Z,49.5
2023-05-06T02:23:02.622Z,50
2023-05-06T02:28:21.073Z,50.1
2023-05-06T02:33:39.706Z,50
2023-05-06T02:38:58.496Z,48.9
2023-05-06T02:44:16.797Z,48.6
2023-05-06T02:49:35.255Z,49.5
2023-05-06T02:54:53.549Z,49.3
2023-05-06T03:00:12.126Z,49.6
2023-05-06T03:05:30.743Z,49.3
2023-05-06T03:10:49.157Z,48.9
2023-05-06T03:16:07.509Z,48.9
2023-05-06T03:21:25.959Z,48.8
2023-05-06T03:26:44.291Z,49.4
2023-05-06T03:32:02.945Z,49
2023-05-06T03:37:21.024Z,49.8
2023-05-06T03:42:39.217Z,49.9
2023-05-06T03:47:59.283Z,48.7
2023-05-06T03:53:17.739Z,49.3
2023-05-06T03:58:36.248Z,48.6
2023-05-06T04:03:55.039Z,49.5
2023-05-06T04:09:13.378Z,49.5
2023-05-06T04:14:32.115Z,49.2
2023-05-06T04:19:51.133Z,49.5
2023-05-06T04:25:10.399Z,49
2023-05-06T04:30:28.962Z,49.7
2023-05-06T04:35:47.251Z,49.2
2023-05-06T04:41:08.517Z,49.9
2023-05-06T04:46:26.661Z,49.8
2023-05-06T04:51:44.805Z,49.5
2023-05-06T04:57:03.470Z,48.9
2023-05-06T05:02:23.000Z,48.9
2023-05-06T05:07:41.702Z,48.9
2023-05-06T05:13:03.718Z,49.5
2023-05-06T05:18:22.426Z,48.9
2023-05-06T05:23:41.948Z,48.9
2023-05-06T05:29:00.641Z,49.6
2023-05-06T05:34:19.574Z,49.9
2023-05-06T05:39:38.065Z,48.8
2023-05-06T05:44:56.113Z,49.6
2023-05-06T05:50:14.453Z,49.3
2023-05-06T05:55:32.886Z,48.5
2023-05-06T06:00:51.138Z,49.6
2023-05-06T06:06:09.571Z,50
2023-05-06T06:11:28.342Z,49
2023-05-06T06:16:47.248Z,48.9
2023-05-06T06:22:05.882Z,49.4
2023-05-06T06:27:24.543Z,48.7
2023-05-06T06:32:42.811Z,49.7
2023-05-06T06:38:01.880Z,49.7
2023-05-06T06:43:20.328Z,49.6
2023-05-06T06:48:38.746Z,50.5
2023-05-06T06:53:57.467Z,49.3
2023-05-06T06:59:16.039Z,49.9
2023-05-06T07:04:35.081Z,50.3
2023-05-06T07:09:53.584Z,46.5
2023-05-06T07:15:12.841Z,46.8
2023-05-06T07:20:31.011Z,46.2
2023-05-06T07:25:49.763Z,45.9
2023-05-06T07:31:08.373Z,46.8
2023-05-06T07:36:26.868Z,47.8
2023-05-06T07:41:45.219Z,48.3
2023-05-06T07:46:48.299Z,48.5
2023-05-06T07:52:06.724Z,47.9
2023-05-06T07:57:25.449Z,48.6
2023-05-06T08:02:44.146Z,49.2
2023-05-06T08:08:02.912Z,49.3
2023-05-06T08:13:21.635Z,49.9
2023-05-06T08:18:40.240Z,49.9
2023-05-06T08:23:58.905Z,50.3
2023-05-06T08:29:17.531Z,50.2
2023-05-06T08:34:36.256Z,49.9
2023-05-06T08:40:00.271Z,50.5
2023-05-06T08:45:18.622Z,50.5
2023-05-06T08:50:37.402Z,50.3
2023-05-06T08:55:56.118Z,49.5
2023-05-06T09:01:14.616Z,50.4
2023-05-06T09:06:33.025Z,49.7
2023-05-06T09:11:51.364Z,50.6
2023-05-06T09:17:09.973Z,49.7
2023-05-06T09:22:28.227Z,49.7
2023-05-06T09:27:46.488Z,49.2
2023-05-06T09:33:05.187Z,49.9
2023-05-06T09:38:23.892Z,49.6
2023-05-06T09:43:42.557Z,49.8
2023-05-06T09:49:01.018Z,49.4
2023-05-06T09:54:19.319Z,48.8
2023-05-06T09:59:37.312Z,49.1
2023-05-06T10:04:56.630Z,49.3
2023-05-06T10:10:15.180Z,48.1
2023-05-06T10:15:17.753Z,48.4
2023-05-06T10:20:36.409Z,48.1
2023-05-06T10:25:54.569Z,48.2
2023-05-06T10:30:57.553Z,46
2023-05-06T10:36:16.016Z,47.7
2023-05-06T10:41:34.478Z,48.6
2023-05-06T10:46:52.730Z,47.9
2023-05-06T10:52:11.188Z,48.7
2023-05-06T10:57:30.108Z,47.9
2023-05-06T11:02:48.663Z,48.4
2023-05-06T11:08:07.188Z,47.3
2023-05-06T11:13:25.842Z,47.2
2023-05-06T11:18:28.904Z,46.7
2023-05-06T11:23:47.681Z,46.3
2023-05-06T11:29:05.931Z,47.1
2023-05-06T11:34:33.395Z,46.6
2023-05-06T11:39:51.784Z,46.8
2023-05-06T11:45:10.156Z,47.5
2023-05-06T11:50:28.255Z,47.2
2023-05-06T11:55:47.150Z,48
2023-05-06T12:01:05.939Z,48.5
2023-05-06T12:06:25.552Z,48.3
2023-05-06T12:11:46.059Z,48.4
2023-05-06T12:17:04.262Z,48.3
2023-05-06T12:22:22.789Z,49.2
2023-05-06T12:27:41.459Z,49
2023-05-06T12:32:59.979Z,48.9
2023-05-06T12:38:18.677Z,49.1
2023-05-06T12:43:38.066Z,49.1
2023-05-06T12:48:56.749Z,49.7
2023-05-06T12:54:15.288Z,49.6
2023-05-06T12:59:33.933Z,50
2023-05-06T13:04:52.710Z,49.6
2023-05-06T13:10:12.759Z,49
2023-05-06T13:15:31.529Z,48.9
2023-05-06T13:20:50.159Z,48.9
2023-05-06T13:26:08.383Z,49.6
2023-05-06T13:31:26.782Z,48.8
2023-05-06T13:36:45.445Z,49.6
2023-05-06T13:42:08.469Z,49.1
2023-05-06T13:47:28.046Z,49.4
2023-05-06T13:52:46.134Z,49.7
2023-05-06T13:57:49.939Z,49.7
2023-05-06T14:03:08.705Z,49.7
2023-05-06T14:08:27.194Z,48.9
2023-05-06T14:13:30.977Z,49.6
2023-05-06T14:18:49.210Z,49.2
2023-05-06T14:24:08.762Z,49.9
2023-05-06T14:29:27.223Z,49.3
2023-05-06T14:34:45.926Z,49.2
2023-05-06T14:40:04.804Z,49.1
2023-05-06T14:45:23.217Z,50
2023-05-06T14:50:41.704Z,50.1
2023-05-06T14:55:59.877Z,49.4
2023-05-06T15:01:18.777Z,49.4
2023-05-06T15:06:37.241Z,49.7
2023-05-06T15:11:55.673Z,50.2
2023-05-06T15:17:14.024Z,49.3
2023-05-06T15:22:32.572Z,49.9
2023-05-06T15:27:51.572Z,50
2023-05-06T15:33:09.824Z,49.9
2023-05-06T15:38:28.269Z,50.2
2023-05-06T15:43:49.325Z,49.5
2023-05-06T15:49:52.668Z,49.6
2023-05-06T15:55:14.474Z,50.4
2023-05-06T16:00:32.705Z,49.6
2023-05-06T16:05:51.371Z,49.8
2023-05-06T16:11:09.726Z,50.1
2023-05-06T16:16:27.995Z,50.4
2023-05-06T16:21:46.340Z,49.9
2023-05-06T16:27:04.483Z,49.3
2023-05-06T16:32:23.103Z,50
2023-05-06T16:37:41.561Z,49.9
2023-05-06T16:42:59.973Z,49.1
2023-05-06T16:48:18.899Z,48.5
2023-05-06T16:53:37.378Z,49.3
2023-05-06T16:58:55.740Z,49.3
2023-05-06T17:04:14.213Z,48.8
2023-05-06T17:09:35.677Z,49
2023-05-06T17:14:55.195Z,48.5
2023-05-06T17:20:14.008Z,49.3
2023-05-06T17:25:32.237Z,49.3
2023-05-06T17:30:50.838Z,49.3
2023-05-06T17:36:09.175Z,49.2
2023-05-06T17:41:27.584Z,49.3
2023-05-06T17:46:46.521Z,49.4
2023-05-06T17:52:04.826Z,49.5
2023-05-06T17:57:23.192Z,49.2
2023-05-06T18:02:41.973Z,48.4
2023-05-06T18:08:00.379Z,48.3
2023-05-06T18:13:19.158Z,48.1
2023-05-06T18:18:37.356Z,48
2023-05-06T18:24:17.048Z,48.1
2023-05-06T18:29:35.230Z,48.1
2023-05-06T18:34:53.508Z,48.1
2023-05-06T18:40:11.765Z,48
2023-05-06T18:45:30.135Z,48.9
2023-05-06T18:50:48.675Z,48.1
2023-05-06T18:56:07.202Z,49
2023-05-06T19:01:25.497Z,48.4
2023-05-06T19:06:44.366Z,48.5
2023-05-06T19:12:03.033Z,48.7
2023-05-06T19:17:24.450Z,49.2
2023-05-06T19:22:43.124Z,49.2
2023-05-06T19:28:01.298Z,49.2
2023-05-06T19:33:19.646Z,49.2
2023-05-06T19:38:37.754Z,48.7
2023-05-06T19:43:56.195Z,49.4
2023-05-06T19:49:14.391Z,48.3
2023-05-06T19:54:32.525Z,49
2023-05-06T19:59:50.994Z,48.6
2023-05-06T20:05:11.571Z,49.4
2023-05-06T20:10:31.081Z,50
2023-05-06T20:15:49.583Z,48.7
2023-05-06T20:21:08.045Z,49.8
2023-05-06T20:26:28.002Z,48.9
2023-05-06T20:31:46.564Z,48.8
2023-05-06T20:37:04.946Z,49.6
2023-05-06T20:42:23.145Z,49.5
2023-05-06T20:47:41.528Z,49.3
2023-05-06T20:52:59.842Z,50.2
2023-05-06T20:58:18.054Z,49.4
2023-05-06T21:03:36.512Z,50.3
2023-05-06T21:08:54.682Z,49.9
2023-05-06T21:14:13.078Z,50.4
2023-05-06T21:19:31.691Z,50.4
2023-05-06T21:24:49.733Z,49.6
2023-05-06T21:30:09.009Z,50.7
2023-05-06T21:35:27.398Z,49.4
2023-05-06T21:40:46.064Z,49.8
2023-05-06T21:46:04.850Z,49.8
2023-05-06T21:51:23.276Z,49.6
2023-05-06T21:56:41.996Z,49.8
2023-05-06T22:02:00.444Z,49.6
2023-05-06T22:07:19.025Z,49.8
2023-05-06T22:12:37.501Z,50.1
2023-05-06T22:17:56.654Z,50.8
2023-05-06T22:23:15.220Z,50.8
2023-05-06T22:28:33.406Z,50.1
2023-05-06T22:33:51.453Z,50.5
2023-05-06T22:39:09.973Z,50.7
2023-05-06T22:44:28.449Z,49.7
2023-05-06T22:49:47.007Z,50.3
2023-05-06T22:55:04.997Z,49.7
2023-05-06T23:00:23.451Z,50.6
2023-05-06T23:05:41.932Z,50.5
2023-05-06T23:11:00.791Z,50.4
2023-05-06T23:16:19.121Z,50.1
2023-05-06T23:21:37.621Z,50
2023-05-06T23:26:56.495Z,50.3
2023-05-06T23:32:15.121Z,49.6
2023-05-06T23:37:33.158Z,50.1
2023-05-06T23:42:51.490Z,50.4
2023-05-06T23:48:10.328Z,49.9
2023-05-06T23:53:28.341Z,50.4
2023-05-06T23:58:46.498Z,50.6
